createdAt,value
2022-10-08T00:01:18.169Z,3.67
2022-10-08T00:03:47.802Z,3.28
2022-10-08T00:06:23.169Z,2.83
2022-10-08T00:08:53.768Z,2.70
2022-10-08T00:11:29.534Z,2.90
2022-10-08T00:13:56.966Z,3.63
2022-10-08T00:16:30.472Z,3.20
2022-10-08T00:19:03.954Z,3.00
2022-10-08T00:21:39.015Z,3.45
2022-10-08T00:24:08.109Z,2.72
2022-10-08T00:26:42.550Z,3.60
2022-10-08T00:29:13.799Z,3.53
2022-10-08T00:31:45.474Z,2.83
2022-10-08T00:34:21.740Z,3.03
2022-10-08T00:36:52.144Z,3.33
2022-10-08T00:39:21.885Z,3.65
2022-10-08T00:41:52.577Z,3.50
2022-10-08T00:44:54.414Z,3.00
2022-10-08T00:47:33.272Z,3.35
2022-10-08T00:50:12.195Z,3.17
2022-10-08T00:53:01.398Z,3.50
2022-10-08T00:55:30.032Z,3.78
2022-10-08T00:58:01.367Z,3.35
2022-10-08T01:00:29.618Z,3.38
2022-10-08T01:02:56.935Z,3.05
2022-10-08T01:05:39.656Z,3.10
2022-10-08T01:08:34.771Z,3.15
2022-10-08T01:11:23.167Z,3.65
2022-10-08T01:13:55.952Z,3.40
2022-10-08T01:16:45.657Z,3.75
2022-10-08T01:19:36.906Z,3.10
2022-10-08T01:25:32.783Z,3.38
2022-10-08T01:28:24.342Z,3.47
2022-10-08T01:31:22.353Z,3.80
2022-10-08T01:34:03.335Z,3.20
2022-10-08T01:36:37.030Z,3.30
2022-10-08T01:39:09.554Z,3.67
2022-10-08T01:41:36.679Z,3.28
2022-10-08T01:44:15.413Z,3.38
2022-10-08T01:46:46.415Z,3.83
2022-10-08T01:51:53.912Z,3.50
2022-10-08T01:54:24.486Z,3.88
2022-10-08T01:56:54.740Z,3.90
2022-10-08T01:59:42.265Z,3.67
2022-10-08T02:02:21.452Z,4.07
2022-10-08T02:04:49.552Z,3.65
2022-10-08T02:07:25.695Z,4.00
2022-10-08T02:10:03.721Z,3.92
2022-10-08T02:12:31.344Z,3.80
2022-10-08T02:14:59.395Z,3.72
2022-10-08T02:17:38.427Z,4.30
2022-10-08T02:20:11.576Z,4.05
2022-10-08T02:22:45.794Z,4.03
2022-10-08T02:25:24.750Z,4.07
2022-10-08T02:28:09.942Z,4.50
2022-10-08T02:30:42.928Z,4.47
2022-10-08T02:33:26.802Z,4.22
2022-10-08T02:35:57.656Z,3.83
2022-10-08T02:38:52.010Z,4.50
2022-10-08T02:41:25.180Z,4.43
2022-10-08T02:43:54.342Z,4.40
2022-10-08T02:46:24.283Z,4.47
2022-10-08T02:49:01.646Z,4.13
2022-10-08T02:51:32.044Z,4.88
2022-10-08T02:54:00.731Z,4.72
2022-10-08T02:56:38.994Z,4.45
2022-10-08T02:59:06.829Z,4.43
2022-10-08T03:01:50.406Z,5.53
2022-10-08T03:04:41.696Z,5.15
2022-10-08T03:09:39.943Z,5.00
2022-10-08T03:12:07.752Z,5.20
2022-10-08T03:14:43.897Z,4.90
2022-10-08T03:17:15.223Z,5.22
2022-10-08T03:19:45.321Z,5.45
2022-10-08T03:22:15.234Z,5.28
2022-10-08T03:24:43.609Z,5.57
2022-10-08T03:27:10.774Z,5.70
2022-10-08T03:29:37.718Z,5.30
2022-10-08T03:32:04.791Z,5.20
2022-10-08T03:34:31.709Z,5.90
2022-10-08T03:36:58.719Z,6.45
2022-10-08T03:39:25.675Z,5.50
2022-10-08T03:41:52.613Z,5.88
2022-10-08T03:44:19.517Z,6.20
2022-10-08T03:46:46.540Z,6.28
2022-10-08T03:49:13.531Z,5.10
2022-10-08T03:51:40.470Z,6.03
2022-10-08T03:54:07.397Z,5.85
2022-10-08T03:56:34.647Z,5.75
2022-10-08T03:59:01.967Z,5.47
2022-10-08T04:01:29.611Z,6.00
2022-10-08T04:03:56.629Z,6.03
2022-10-08T04:06:23.924Z,5.88
2022-10-08T04:08:50.931Z,5.85
2022-10-08T04:11:19.305Z,6.47
2022-10-08T04:13:46.469Z,5.47
2022-10-08T04:16:15.825Z,6.45
2022-10-08T04:18:43.605Z,6.28
2022-10-08T04:21:13.550Z,5.88
2022-10-08T04:23:41.864Z,6.63
2022-10-08T04:26:10.378Z,6.03
2022-10-08T04:28:39.521Z,5.93
2022-10-08T04:31:12.891Z,5.40
2022-10-08T04:33:40.026Z,6.03
2022-10-08T04:36:15.729Z,6.05
2022-10-08T04:38:43.853Z,5.63
2022-10-08T04:41:13.611Z,5.53
2022-10-08T04:43:41.893Z,6.25
2022-10-08T04:46:10.959Z,6.63
2022-10-08T04:48:39.109Z,6.00
2022-10-08T04:51:10.591Z,6.25
2022-10-08T04:53:38.459Z,6.47
2022-10-08T04:56:17.718Z,6.45
2022-10-08T04:58:45.259Z,6.10
2022-10-08T05:01:14.579Z,6.15
2022-10-08T05:03:44.455Z,5.95
2022-10-08T05:06:12.250Z,6.32
2022-10-08T05:08:40.573Z,6.70
2022-10-08T05:11:07.823Z,6.68
2022-10-08T05:13:35.136Z,6.63
2022-10-08T05:16:13.870Z,6.70
2022-10-08T05:18:42.238Z,6.30
2022-10-08T05:21:12.398Z,18.27
2022-10-08T05:23:40.131Z,11.25
2022-10-08T05:26:14.144Z,10.02
2022-10-08T05:28:41.288Z,8.18
2022-10-08T05:31:08.278Z,8.00
2022-10-08T05:33:36.512Z,8.85
2022-10-08T05:36:05.641Z,8.15
2022-10-08T05:38:35.108Z,7.88
2022-10-08T05:41:13.839Z,9.07
2022-10-08T05:43:43.788Z,9.00
2022-10-08T05:46:11.144Z,8.27
2022-10-08T05:48:38.901Z,9.48
2022-10-08T05:51:11.400Z,8.50
2022-10-08T05:53:40.826Z,9.43
2022-10-08T05:56:10.815Z,8.80
2022-10-08T05:58:39.673Z,9.60
2022-10-08T06:01:13.526Z,10.90
2022-10-08T06:03:40.771Z,11.32
2022-10-08T06:06:11.733Z,9.57
2022-10-08T06:11:06.367Z,9.75
2022-10-08T06:13:33.769Z,9.23
2022-10-08T06:16:03.553Z,6.78
2022-10-08T06:18:33.264Z,5.78
2022-10-08T06:21:15.228Z,4.70
2022-10-08T06:23:52.107Z,4.80
2022-10-08T06:26:20.168Z,4.20
2022-10-08T06:28:47.125Z,3.90
2022-10-08T06:31:14.725Z,4.80
2022-10-08T06:33:41.853Z,4.65
2022-10-08T06:36:14.370Z,4.55
2022-10-08T06:38:41.632Z,4.30
2022-10-08T06:41:08.905Z,4.25
2022-10-08T06:43:36.295Z,3.97
2022-10-08T06:46:07.508Z,4.30
2022-10-08T06:48:35.026Z,4.45
2022-10-08T06:51:04.770Z,4.07
2022-10-08T06:53:32.017Z,4.03
2022-10-08T06:56:08.579Z,4.00
2022-10-08T06:58:35.651Z,4.90
2022-10-08T07:01:06.780Z,4.00
2022-10-08T07:03:34.800Z,4.63
2022-10-08T07:06:03.179Z,4.15
2022-10-08T07:08:30.754Z,4.50
2022-10-08T07:11:11.042Z,4.03
2022-10-08T07:13:39.261Z,4.28
2022-10-08T07:16:20.535Z,4.18
2022-10-08T07:18:50.284Z,4.22
2022-10-08T07:21:18.970Z,4.88
2022-10-08T07:23:46.072Z,5.00
2022-10-08T07:26:22.091Z,4.47
2022-10-08T07:29:01.716Z,4.53
2022-10-08T07:31:31.465Z,4.30
2022-10-08T07:34:00.078Z,4.10
2022-10-08T07:36:28.373Z,3.83
2022-10-08T07:38:56.680Z,4.15
2022-10-08T07:41:24.170Z,4.22
2022-10-08T07:44:05.314Z,4.20
2022-10-08T07:46:49.920Z,4.30
2022-10-08T07:49:18.909Z,4.30
2022-10-08T07:51:46.407Z,4.68
2022-10-08T07:54:18.568Z,4.47
2022-10-08T07:56:45.989Z,4.68
2022-10-08T07:59:15.913Z,4.38
2022-10-08T08:01:43.974Z,4.75
2022-10-08T08:04:11.687Z,4.10
2022-10-08T08:06:44.177Z,4.35
2022-10-08T08:09:14.436Z,4.43
2022-10-08T08:11:41.456Z,4.47
2022-10-08T08:14:08.372Z,4.30
2022-10-08T08:16:35.519Z,4.18
2022-10-08T08:19:07.176Z,4.15
2022-10-08T08:21:38.283Z,4.10
2022-10-08T08:24:08.370Z,3.50
2022-10-08T08:26:38.012Z,4.53
2022-10-08T08:29:08.255Z,4.05
2022-10-08T08:31:37.655Z,3.50
2022-10-08T08:34:08.642Z,4.20
2022-10-08T08:39:08.438Z,4.53
2022-10-08T08:42:09.099Z,3.88
2022-10-08T08:45:01.234Z,4.38
2022-10-08T08:47:36.562Z,3.67
2022-10-08T08:50:30.103Z,3.72
2022-10-08T08:52:57.635Z,4.00
2022-10-08T08:55:49.293Z,3.80
2022-10-08T08:58:38.122Z,3.83
2022-10-08T09:01:17.767Z,4.25
2022-10-08T09:03:52.925Z,4.00
2022-10-08T09:06:23.351Z,3.70
2022-10-08T09:09:01.957Z,4.07
2022-10-08T09:11:39.711Z,3.40
2022-10-08T09:17:35.493Z,3.90
2022-10-08T09:20:02.921Z,3.78
2022-10-08T09:22:36.970Z,4.05
2022-10-08T09:25:08.077Z,9.25
2022-10-08T09:27:54.073Z,7.93
2022-10-08T09:30:56.461Z,4.18
2022-10-08T09:33:32.130Z,4.20
2022-10-08T09:35:59.548Z,7.22
2022-10-08T09:38:41.400Z,5.05
2022-10-08T09:41:17.094Z,4.10
2022-10-08T09:43:45.735Z,4.97
2022-10-08T09:46:30.969Z,3.70
2022-10-08T09:49:20.535Z,4.18
2022-10-08T09:51:50.217Z,3.63
2022-10-08T09:54:27.294Z,4.80
2022-10-08T09:56:57.727Z,4.78
2022-10-08T09:59:28.903Z,7.65
2022-10-08T10:01:59.393Z,7.55
2022-10-08T10:04:37.877Z,4.97
2022-10-08T10:07:05.864Z,3.58
2022-10-08T10:09:44.852Z,4.35
2022-10-08T10:12:16.546Z,4.00
2022-10-08T10:14:56.573Z,4.85
2022-10-08T10:17:39.535Z,4.50
2022-10-08T10:20:11.562Z,3.33
2022-10-08T10:22:56.507Z,4.38
2022-10-08T10:25:47.944Z,4.05
2022-10-08T10:28:38.844Z,4.15
2022-10-08T10:31:14.039Z,4.43
2022-10-08T10:33:59.396Z,5.45
2022-10-08T10:36:31.589Z,7.60
2022-10-08T10:39:30.512Z,4.93
2022-10-08T10:42:18.568Z,8.32
2022-10-08T10:44:53.766Z,7.70
2022-10-08T10:47:25.315Z,9.05
2022-10-08T10:49:55.374Z,3.95
2022-10-08T10:52:53.186Z,6.35
2022-10-08T10:55:33.036Z,4.25
2022-10-08T10:58:17.947Z,9.50
2022-10-08T11:00:53.621Z,7.88
2022-10-08T11:03:52.003Z,5.60
2022-10-08T11:06:49.592Z,5.10
2022-10-08T11:09:32.069Z,6.10
2022-10-08T11:12:31.028Z,4.70
2022-10-08T11:15:07.166Z,3.90
2022-10-08T11:17:37.721Z,4.20
2022-10-08T11:20:37.993Z,4.20
2022-10-08T11:23:35.186Z,4.65
2022-10-08T11:26:22.414Z,4.03
2022-10-08T11:29:23.233Z,4.03
2022-10-08T11:31:52.242Z,3.78
2022-10-08T11:34:35.432Z,3.42
2022-10-08T11:37:31.504Z,2.92
2022-10-08T11:40:23.170Z,3.20
2022-10-08T11:43:03.441Z,3.33
2022-10-08T11:45:39.949Z,3.25
2022-10-08T11:48:35.403Z,3.95
2022-10-08T11:51:20.157Z,3.83
2022-10-08T11:54:16.479Z,3.25
2022-10-08T11:56:52.199Z,3.85
2022-10-08T11:59:22.181Z,3.17
2022-10-08T12:01:57.479Z,3.07
2022-10-08T12:04:42.275Z,2.58
2022-10-08T12:07:15.346Z,3.20
2022-10-08T12:10:02.061Z,2.53
2022-10-08T12:12:50.869Z,2.97
2022-10-08T12:15:23.887Z,2.70
2022-10-08T12:18:26.228Z,3.10
2022-10-08T12:21:20.564Z,2.90
2022-10-08T12:23:47.776Z,2.67
2022-10-08T12:26:16.637Z,3.33
2022-10-08T12:28:43.553Z,3.53
2022-10-08T12:31:30.455Z,2.88
2022-10-08T12:33:58.662Z,2.88
2022-10-08T12:36:43.577Z,2.58
2022-10-08T12:39:30.373Z,2.85
2022-10-08T12:42:09.714Z,2.53
2022-10-08T12:44:54.590Z,2.90
2022-10-08T12:47:30.651Z,2.60
2022-10-08T12:50:32.249Z,3.13
2022-10-08T12:53:01.319Z,2.47
2022-10-08T12:55:29.272Z,3.05
2022-10-08T12:57:56.252Z,2.53
2022-10-08T13:00:31.169Z,2.45
2022-10-08T13:03:18.326Z,2.13
2022-10-08T13:05:46.113Z,2.78
2022-10-08T13:08:30.008Z,2.60
2022-10-08T13:10:58.493Z,2.85
2022-10-08T13:13:38.852Z,2.60
2022-10-08T13:16:07.108Z,2.90
2022-10-08T13:18:36.092Z,2.55
2022-10-08T13:21:07.993Z,2.33
2022-10-08T13:23:36.091Z,2.65
2022-10-08T13:26:06.211Z,2.60
2022-10-08T13:28:59.021Z,2.83
2022-10-08T13:31:23.981Z,3.05
2022-10-08T13:33:51.439Z,2.40
2022-10-08T13:36:23.048Z,2.75
2022-10-08T13:38:50.209Z,3.03
2022-10-08T13:41:25.923Z,2.55
2022-10-08T13:43:52.806Z,2.13
2022-10-08T13:46:19.768Z,2.53
2022-10-08T13:48:46.719Z,2.75
2022-10-08T13:51:13.657Z,3.30
2022-10-08T13:53:42.289Z,2.40
2022-10-08T13:56:09.353Z,2.30
2022-10-08T13:58:36.245Z,2.17
2022-10-08T14:01:03.267Z,2.15
2022-10-08T14:03:30.206Z,2.40
2022-10-08T14:05:58.107Z,2.38
2022-10-08T14:08:29.413Z,2.30
2022-10-08T14:10:58.393Z,2.33
2022-10-08T14:13:25.954Z,2.15
2022-10-08T14:15:53.036Z,2.22
2022-10-08T14:18:20.284Z,1.95
2022-10-08T14:20:50.571Z,2.42
2022-10-08T14:23:17.714Z,2.60
2022-10-08T14:25:44.662Z,2.40
2022-10-08T14:28:11.601Z,2.50
2022-10-08T14:30:38.497Z,2.50
2022-10-08T14:33:10.316Z,2.55
2022-10-08T14:35:38.864Z,2.67
2022-10-08T14:38:06.038Z,2.72
2022-10-08T14:40:33.022Z,2.90
2022-10-08T14:42:59.963Z,2.90
2022-10-08T14:45:27.076Z,3.35
2022-10-08T14:47:54.055Z,3.20
2022-10-08T14:50:21.232Z,3.80
2022-10-08T14:52:48.352Z,3.58
2022-10-08T14:55:15.794Z,3.10
2022-10-08T14:57:42.780Z,3.70
2022-10-08T15:00:10.437Z,3.50
2022-10-08T15:02:37.367Z,3.50
2022-10-08T15:05:04.555Z,3.72
2022-10-08T15:07:31.517Z,3.35
2022-10-08T15:09:58.882Z,3.42
2022-10-08T15:12:25.797Z,3.28
2022-10-08T15:14:52.688Z,3.63
2022-10-08T15:17:19.595Z,3.60
2022-10-08T15:19:46.980Z,4.53
2022-10-08T15:22:13.942Z,4.95
2022-10-08T15:24:41.452Z,4.95
2022-10-08T15:27:08.475Z,4.95
2022-10-08T15:29:36.703Z,5.45
2022-10-08T15:32:03.778Z,4.82
2022-10-08T15:34:30.742Z,5.38
2022-10-08T15:36:57.625Z,5.25
2022-10-08T15:39:24.633Z,5.07
2022-10-08T15:41:53.113Z,5.60
2022-10-08T15:44:25.315Z,5.28
2022-10-08T15:46:59.861Z,4.68
2022-10-08T15:49:31.499Z,4.90
2022-10-08T15:51:58.821Z,4.95
2022-10-08T15:54:25.907Z,4.45
2022-10-08T15:56:53.464Z,4.38
2022-10-08T15:59:20.492Z,4.43
2022-10-08T16:01:47.621Z,4.05
2022-10-08T16:04:14.712Z,3.90
2022-10-08T16:06:45.281Z,4.53
2022-10-08T16:09:13.894Z,4.47
2022-10-08T16:11:41.474Z,4.72
2022-10-08T16:14:19.897Z,6.50
2022-10-08T16:16:47.214Z,12.55
2022-10-08T16:19:23.337Z,12.45
2022-10-08T16:21:51.689Z,9.00
2022-10-08T16:24:19.437Z,11.45
2022-10-08T16:26:47.258Z,10.57
2022-10-08T16:29:16.292Z,12.90
2022-10-08T16:31:44.386Z,26.98
2022-10-08T16:34:22.800Z,11.20
2022-10-08T16:36:59.249Z,7.35
2022-10-08T16:39:26.340Z,9.20
2022-10-08T16:41:53.360Z,8.63
2022-10-08T16:44:21.327Z,9.82
2022-10-08T16:46:53.107Z,10.73
2022-10-08T16:49:24.713Z,9.10
2022-10-08T16:52:04.830Z,8.25
2022-10-08T16:54:32.928Z,6.53
2022-10-08T16:56:59.940Z,6.70
2022-10-08T16:59:28.905Z,6.93
2022-10-08T17:01:57.900Z,6.72
2022-10-08T17:04:27.804Z,5.93
2022-10-08T17:06:55.581Z,5.35
2022-10-08T17:09:22.786Z,5.93
2022-10-08T17:11:50.125Z,6.45
2022-10-08T17:14:17.101Z,6.63
2022-10-08T17:16:45.147Z,5.57
2022-10-08T17:19:12.648Z,8.57
2022-10-08T17:21:40.356Z,5.57
2022-10-08T17:24:07.721Z,5.40
2022-10-08T17:26:34.855Z,5.57
2022-10-08T17:29:07.221Z,4.75
2022-10-08T17:31:34.522Z,5.85
2022-10-08T17:34:02.341Z,6.78
2022-10-08T17:36:31.624Z,5.47
2022-10-08T17:39:00.986Z,7.35
2022-10-08T17:41:33.793Z,8.48
2022-10-08T17:44:02.944Z,6.70
2022-10-08T17:46:52.181Z,10.63
2022-10-08T17:49:20.544Z,12.45
2022-10-08T17:51:48.097Z,11.30
2022-10-08T17:54:18.432Z,11.77
2022-10-08T17:56:46.285Z,5.03
2022-10-08T17:59:45.796Z,5.50
2022-10-08T18:02:12.819Z,10.25
2022-10-08T18:04:39.885Z,12.10
2022-10-08T18:07:06.794Z,12.48
2022-10-08T18:09:33.685Z,7.28
2022-10-08T18:12:00.631Z,4.82
2022-10-08T18:14:27.501Z,4.78
2022-10-08T18:16:54.496Z,5.53
2022-10-08T18:19:21.476Z,5.70
2022-10-08T18:21:48.715Z,6.30
2022-10-08T18:24:17.146Z,4.80
2022-10-08T18:26:44.204Z,4.57
2022-10-08T18:29:13.427Z,3.78
2022-10-08T18:31:42.266Z,4.90
2022-10-08T18:34:15.632Z,4.90
2022-10-08T18:36:42.791Z,6.63
2022-10-08T18:39:14.809Z,7.25
2022-10-08T18:41:50.218Z,4.90
2022-10-08T18:44:23.076Z,5.68
2022-10-08T18:46:50.788Z,6.55
2022-10-08T18:49:20.095Z,5.18
2022-10-08T18:51:49.312Z,4.80
2022-10-08T18:54:16.214Z,4.75
2022-10-08T18:56:43.237Z,4.38
2022-10-08T18:59:15.528Z,4.63
2022-10-08T19:01:44.930Z,4.85
2022-10-08T19:04:18.176Z,5.35
2022-10-08T19:06:46.826Z,5.15
2022-10-08T19:09:14.228Z,6.22
2022-10-08T19:11:45.172Z,5.97
2022-10-08T19:14:15.256Z,6.00
2022-10-08T19:16:42.572Z,6.32
2022-10-08T19:19:23.098Z,4.30
2022-10-08T19:21:50.698Z,4.10
2022-10-08T19:24:20.340Z,4.00
2022-10-08T19:26:48.395Z,3.80
2022-10-08T19:29:18.093Z,3.65
2022-10-08T19:31:50.145Z,3.63
2022-10-08T19:34:20.245Z,3.78
2022-10-08T19:36:47.470Z,4.03
2022-10-08T19:39:17.389Z,3.85
2022-10-08T19:41:44.355Z,4.25
2022-10-08T19:44:11.877Z,3.92
2022-10-08T19:46:38.936Z,3.63
2022-10-08T19:49:07.307Z,3.78
2022-10-08T19:51:34.355Z,3.17
2022-10-08T19:54:01.675Z,3.35
2022-10-08T19:56:41.681Z,3.30
2022-10-08T19:59:10.683Z,4.22
2022-10-08T20:01:39.242Z,3.40
2022-10-08T20:04:07.508Z,4.05
2022-10-08T20:06:38.772Z,4.15
2022-10-08T20:09:07.763Z,4.22
2022-10-08T20:11:34.723Z,3.72
2022-10-08T20:14:01.778Z,6.53
2022-10-08T20:16:37.932Z,4.70
2022-10-08T20:19:16.901Z,4.63
2022-10-08T20:21:44.256Z,4.72
2022-10-08T20:24:11.655Z,4.72
2022-10-08T20:26:40.654Z,4.68
2022-10-08T20:29:16.446Z,4.47
2022-10-08T20:31:54.917Z,4.13
2022-10-08T20:34:28.755Z,4.60
2022-10-08T20:36:55.796Z,3.83
2022-10-08T20:39:23.150Z,3.80
2022-10-08T20:41:51.705Z,3.65
2022-10-08T20:44:18.924Z,4.10
2022-10-08T20:46:48.416Z,4.45
2022-10-08T20:49:15.400Z,4.13
2022-10-08T20:51:43.512Z,3.80
2022-10-08T20:54:13.775Z,3.63
2022-10-08T20:56:41.510Z,3.88
2022-10-08T20:59:11.088Z,4.15
2022-10-08T21:01:39.112Z,3.63
2022-10-08T21:04:07.188Z,4.07
2022-10-08T21:06:40.315Z,3.63
2022-10-08T21:09:07.704Z,6.50
2022-10-08T21:11:35.556Z,6.03
2022-10-08T21:14:03.765Z,4.68
2022-10-08T21:16:33.698Z,5.20
2022-10-08T21:19:04.129Z,6.00
2022-10-08T21:21:33.108Z,4.55
2022-10-08T21:24:00.544Z,3.80
2022-10-08T21:26:32.839Z,4.28
2022-10-08T21:29:01.848Z,3.88
2022-10-08T21:31:30.962Z,4.85
2022-10-08T21:33:58.578Z,4.28
2022-10-08T21:36:28.259Z,4.30
2022-10-08T21:38:55.507Z,4.28
2022-10-08T21:41:23.957Z,5.28
2022-10-08T21:43:53.193Z,4.72
2022-10-08T21:46:23.738Z,5.05
2022-10-08T21:48:59.484Z,4.70
2022-10-08T21:51:28.036Z,4.90
2022-10-08T21:53:57.350Z,5.00
2022-10-08T21:56:27.262Z,5.28
2022-10-08T21:58:56.352Z,5.38
2022-10-08T22:01:30.533Z,5.25
2022-10-08T22:03:59.656Z,4.97
2022-10-08T22:06:28.358Z,5.75
2022-10-08T22:08:55.586Z,5.10
2022-10-08T22:11:23.321Z,6.28
2022-10-08T22:13:50.458Z,6.47
2022-10-08T22:16:19.249Z,6.88
2022-10-08T22:18:46.547Z,6.50
2022-10-08T22:21:16.519Z,5.97
2022-10-08T22:23:43.516Z,6.28
2022-10-08T22:26:29.180Z,6.75
2022-10-08T22:28:57.012Z,5.93
2022-10-08T22:31:23.989Z,5.85
2022-10-08T22:33:51.314Z,5.38
2022-10-08T22:36:21.610Z,5.93
2022-10-08T22:38:49.147Z,5.95
2022-10-08T22:41:23.319Z,6.10
2022-10-08T22:43:50.935Z,6.22
2022-10-08T22:46:20.330Z,6.63
2022-10-08T22:48:48.260Z,5.93
2022-10-08T22:51:18.634Z,6.28
2022-10-08T22:53:46.030Z,5.57
2022-10-08T22:56:19.462Z,5.80
2022-10-08T22:58:47.294Z,6.28
2022-10-08T23:01:16.672Z,6.90
2022-10-08T23:03:44.330Z,6.65
2022-10-08T23:06:20.587Z,6.95
2022-10-08T23:08:59.894Z,6.45
2022-10-08T23:11:46.389Z,8.98
2022-10-08T23:14:17.857Z,14.73
2022-10-08T23:16:44.749Z,11.15
2022-10-08T23:19:12.234Z,8.18
2022-10-08T23:21:40.229Z,9.13
2022-10-08T23:24:08.619Z,7.43
2022-10-08T23:26:36.357Z,7.72
2022-10-08T23:29:04.592Z,7.53
2022-10-08T23:31:36.560Z,7.95
2022-10-08T23:34:05.013Z,7.82
2022-10-08T23:36:34.900Z,7.50
2022-10-08T23:39:01.993Z,8.05
2022-10-08T23:41:29.496Z,8.20
2022-10-08T23:43:57.114Z,8.30
2022-10-08T23:46:26.968Z,9.82
2022-10-08T23:48:54.006Z,8.15
2022-10-08T23:51:23.063Z,8.93
2022-10-08T23:53:51.416Z,6.32
2022-10-08T23:56:19.237Z,5.82
2022-10-08T23:58:46.197Z,5.38
